Aviation Digital Data Service (ADDS)

Output produced by METARs form (1005 UTC 23 October 2017)
found at http://aviationweather.gov/adds/metars/
 
KMGW 230520Z 2306/2406 13008KT P6SM BKN250 
     FM231500 13012G22KT P6SM -SHRA BKN060 
     FM232300 15012G25KT 3SM RA OVC010